sensor_id;sensor_type;location;lat;lon;timestamp;pressure;altitude;pressure_sealevel;temperature;humidity
6389;BME280;3227;42.654;23.360;2023-01-25T00:01:53;95514.78;;;3.85;89.08
6389;BME280;3227;42.654;23.360;2023-01-25T00:04:21;95525.59;;;3.80;88.39
6389;BME280;3227;42.654;23.360;2023-01-25T00:06:50;95521.94;;;3.74;89.42
6389;BME280;3227;42.654;23.360;2023-01-25T00:09:17;95519.84;;;3.85;89.97
6389;BME280;3227;42.654;23.360;2023-01-25T00:11:44;95524.31;;;3.90;88.89
6389;BME280;3227;42.654;23.360;2023-01-25T00:14:12;95468.16;;;3.60;89.51
6389;BME280;3227;42.654;23.360;2023-01-25T00:16:39;95518.50;;;3.93;89.55
6389;BME280;3227;42.654;23.360;2023-01-25T00:19:07;95506.97;;;3.80;90.00
6389;BME280;3227;42.654;23.360;2023-01-25T00:21:35;95512.13;;;3.61;90.48
6389;BME280;3227;42.654;23.360;2023-01-25T00:24:04;95515.38;;;3.58;90.66
6389;BME280;3227;42.654;23.360;2023-01-25T00:26:33;95501.78;;;3.56;90.94
6389;BME280;3227;42.654;23.360;2023-01-25T00:29:00;95504.38;;;3.58;91.45
6389;BME280;3227;42.654;23.360;2023-01-25T00:31:36;95514.56;;;3.78;90.14
6389;BME280;3227;42.654;23.360;2023-01-25T00:34:18;95449.50;;;3.37;89.81
6389;BME280;3227;42.654;23.360;2023-01-25T00:36:55;95400.38;;;3.15;89.75
6389;BME280;3227;42.654;23.360;2023-01-25T00:39:25;95494.63;;;3.67;90.88
6389;BME280;3227;42.654;23.360;2023-01-25T00:41:53;95519.72;;;3.81;88.55
6389;BME280;3227;42.654;23.360;2023-01-25T00:44:20;95520.66;;;3.83;87.93
6389;BME280;3227;42.654;23.360;2023-01-25T00:46:47;95521.31;;;3.79;89.18
6389;BME280;3227;42.654;23.360;2023-01-25T00:49:18;95518.97;;;3.63;89.07
6389;BME280;3227;42.654;23.360;2023-01-25T00:51:45;95512.38;;;3.48;89.03
6389;BME280;3227;42.654;23.360;2023-01-25T00:54:12;95516.88;;;3.53;89.43
6389;BME280;3227;42.654;23.360;2023-01-25T00:56:40;95514.34;;;3.34;90.79
6389;BME280;3227;42.654;23.360;2023-01-25T00:59:08;95523.22;;;3.43;89.90
6389;BME280;3227;42.654;23.360;2023-01-25T01:01:35;95522.75;;;3.33;90.73
6389;BME280;3227;42.654;23.360;2023-01-25T01:04:02;95522.72;;;3.52;89.76
6389;BME280;3227;42.654;23.360;2023-01-25T01:06:28;95511.41;;;3.25;90.48
6389;BME280;3227;42.654;23.360;2023-01-25T01:08:55;95461.13;;;2.94;91.34
6389;BME280;3227;42.654;23.360;2023-01-25T01:11:22;95515.28;;;3.17;91.25
6389;BME280;3227;42.654;23.360;2023-01-25T01:13:50;95497.84;;;3.03;92.53
6389;BME280;3227;42.654;23.360;2023-01-25T01:16:17;95514.34;;;3.15;91.63
6389;BME280;3227;42.654;23.360;2023-01-25T01:18:44;95488.50;;;3.02;90.69
6389;BME280;3227;42.654;23.360;2023-01-25T01:21:12;95502.47;;;3.14;90.21
6389;BME280;3227;42.654;23.360;2023-01-25T01:23:39;95522.59;;;3.30;89.76
6389;BME280;3227;42.654;23.360;2023-01-25T01:26:09;95514.19;;;3.31;89.33
6389;BME280;3227;42.654;23.360;2023-01-25T01:28:37;95511.25;;;3.41;89.12
6389;BME280;3227;42.654;23.360;2023-01-25T01:31:07;95499.22;;;3.35;89.33
6389;BME280;3227;42.654;23.360;2023-01-25T01:33:34;95506.19;;;3.41;89.22
6389;BME280;3227;42.654;23.360;2023-01-25T01:36:06;95507.22;;;3.44;89.39
6389;BME280;3227;42.654;23.360;2023-01-25T01:38:33;95496.06;;;3.41;89.57
6389;BME280;3227;42.654;23.360;2023-01-25T01:40:59;95435.34;;;3.02;89.62
6389;BME280;3227;42.654;23.360;2023-01-25T01:43:26;95495.53;;;3.48;89.09
6389;BME280;3227;42.654;23.360;2023-01-25T01:45:56;95490.03;;;3.58;90.12
6389;BME280;3227;42.654;23.360;2023-01-25T01:48:33;95489.13;;;3.77;89.25
6389;BME280;3227;42.654;23.360;2023-01-25T01:51:02;95474.84;;;3.58;87.35
6389;BME280;3227;42.654;23.360;2023-01-25T01:53:32;95487.38;;;3.55;87.95
6389;BME280;3227;42.654;23.360;2023-01-25T01:56:02;95484.09;;;3.58;88.20
6389;BME280;3227;42.654;23.360;2023-01-25T01:58:30;95487.69;;;3.63;88.09
6389;BME280;3227;42.654;23.360;2023-01-25T02:00:57;95468.28;;;3.63;88.09
6389;BME280;3227;42.654;23.360;2023-01-25T02:03:25;95490.66;;;3.73;88.62
6389;BME280;3227;42.654;23.360;2023-01-25T02:05:56;95489.25;;;3.80;88.93
6389;BME280;3227;42.654;23.360;2023-01-25T02:08:27;95487.31;;;3.74;88.89
6389;BME280;3227;42.654;23.360;2023-01-25T02:10:56;95492.91;;;3.87;89.37
6389;BME280;3227;42.654;23.360;2023-01-25T02:13:23;95474.34;;;3.88;88.47
6389;BME280;3227;42.654;23.360;2023-01-25T02:15:51;95467.59;;;3.88;88.49
6389;BME280;3227;42.654;23.360;2023-01-25T02:18:18;95487.69;;;4.04;87.31
6389;BME280;3227;42.654;23.360;2023-01-25T02:20:47;95489.31;;;3.81;87.11
6389;BME280;3227;42.654;23.360;2023-01-25T02:23:23;95491.19;;;3.86;87.20
6389;BME280;3227;42.654;23.360;2023-01-25T02:25:52;95490.31;;;3.85;86.67
6389;BME280;3227;42.654;23.360;2023-01-25T02:28:23;95492.28;;;3.92;87.86
6389;BME280;3227;42.654;23.360;2023-01-25T02:30:52;95490.31;;;3.85;87.21
6389;BME280;3227;42.654;23.360;2023-01-25T02:33:21;95423.72;;;3.48;86.53
6389;BME280;3227;42.654;23.360;2023-01-25T02:35:49;95488.56;;;3.84;86.49
6389;BME280;3227;42.654;23.360;2023-01-25T02:38:20;95491.53;;;3.95;86.37
6389;BME280;3227;42.654;23.360;2023-01-25T02:40:56;95491.28;;;3.89;86.08
6389;BME280;3227;42.654;23.360;2023-01-25T02:43:28;95452.47;;;3.69;86.93
6389;BME280;3227;42.654;23.360;2023-01-25T02:46:00;95474.16;;;3.83;86.72
6389;BME280;3227;42.654;23.360;2023-01-25T02:48:28;95457.16;;;3.80;87.14
6389;BME280;3227;42.654;23.360;2023-01-25T02:50:55;95478.03;;;3.96;86.11
6389;BME280;3227;42.654;23.360;2023-01-25T02:53:22;95465.69;;;3.82;86.50
6389;BME280;3227;42.654;23.360;2023-01-25T02:55:48;95481.94;;;3.88;86.50
6389;BME280;3227;42.654;23.360;2023-01-25T02:58:17;95478.16;;;3.99;87.29
6389;BME280;3227;42.654;23.360;2023-01-25T03:00:43;95489.19;;;3.99;87.13
6389;BME280;3227;42.654;23.360;2023-01-25T03:03:10;95485.13;;;4.03;87.38
6389;BME280;3227;42.654;23.360;2023-01-25T03:05:37;95476.94;;;4.10;86.56
6389;BME280;3227;42.654;23.360;2023-01-25T03:08:04;95483.84;;;4.14;86.07
6389;BME280;3227;42.654;23.360;2023-01-25T03:10:31;95490.66;;;4.15;86.19
6389;BME280;3227;42.654;23.360;2023-01-25T03:12:57;95455.78;;;3.89;86.67
6389;BME280;3227;42.654;23.360;2023-01-25T03:15:26;95484.06;;;4.20;86.11
6389;BME280;3227;42.654;23.360;2023-01-25T03:17:54;95484.22;;;4.23;85.57
6389;BME280;3227;42.654;23.360;2023-01-25T03:20:21;95484.22;;;4.23;85.43
6389;BME280;3227;42.654;23.360;2023-01-25T03:22:48;95476.53;;;4.21;85.47
6389;BME280;3227;42.654;23.360;2023-01-25T03:25:15;95476.06;;;4.09;85.12
6389;BME280;3227;42.654;23.360;2023-01-25T03:27:42;95481.00;;;4.06;86.62
6389;BME280;3227;42.654;23.360;2023-01-25T03:30:09;95475.13;;;4.07;86.06
6389;BME280;3227;42.654;23.360;2023-01-25T03:32:38;95476.22;;;4.14;86.82
6389;BME280;3227;42.654;23.360;2023-01-25T03:35:05;95475.13;;;4.07;86.26
6389;BME280;3227;42.654;23.360;2023-01-25T03:37:32;95480.63;;;3.97;85.58
6389;BME280;3227;42.654;23.360;2023-01-25T03:39:59;95485.84;;;4.00;85.30
6389;BME280;3227;42.654;23.360;2023-01-25T03:42:26;95482.38;;;3.98;85.96
6389;BME280;3227;42.654;23.360;2023-01-25T03:44:52;95479.19;;;4.02;86.07
6389;BME280;3227;42.654;23.360;2023-01-25T03:47:19;95456.06;;;3.95;86.07
6389;BME280;3227;42.654;23.360;2023-01-25T03:49:47;95478.31;;;4.02;85.70
6389;BME280;3227;42.654;23.360;2023-01-25T03:52:14;95450.16;;;3.96;86.35
6389;BME280;3227;42.654;23.360;2023-01-25T03:54:41;95437.75;;;3.81;86.27
6389;BME280;3227;42.654;23.360;2023-01-25T03:57:08;95471.88;;;4.10;85.43
6389;BME280;3227;42.654;23.360;2023-01-25T03:59:34;95466.09;;;4.14;85.57
6389;BME280;3227;42.654;23.360;2023-01-25T04:02:01;95470.44;;;4.16;85.70
6389;BME280;3227;42.654;23.360;2023-01-25T04:04:28;95471.97;;;4.13;85.39
6389;BME280;3227;42.654;23.360;2023-01-25T04:06:56;95465.22;;;4.13;85.57
6389;BME280;3227;42.654;23.360;2023-01-25T04:09:23;95467.66;;;4.10;84.94
6389;BME280;3227;42.654;23.360;2023-01-25T04:11:50;95401.28;;;3.77;85.29
6389;BME280;3227;42.654;23.360;2023-01-25T04:14:17;95468.03;;;4.19;84.90
6389;BME280;3227;42.654;23.360;2023-01-25T04:16:43;95459.19;;;4.10;84.28
6389;BME280;3227;42.654;23.360;2023-01-25T04:19:10;95464.00;;;4.04;84.53
6389;BME280;3227;42.654;23.360;2023-01-25T04:21:37;95467.91;;;3.96;84.85
6389;BME280;3227;42.654;23.360;2023-01-25T04:24:06;95460.47;;;3.79;85.48
6389;BME280;3227;42.654;23.360;2023-01-25T04:26:33;95457.91;;;3.78;86.07
6389;BME280;3227;42.654;23.360;2023-01-25T04:28:59;95451.66;;;3.70;85.79
6389;BME280;3227;42.654;23.360;2023-01-25T04:31:26;95465.13;;;3.90;86.19
6389;BME280;3227;42.654;23.360;2023-01-25T04:33:54;95464.69;;;4.00;85.85
6389;BME280;3227;42.654;23.360;2023-01-25T04:36:21;95469.03;;;4.02;84.51
6389;BME280;3227;42.654;23.360;2023-01-25T04:38:47;95465.72;;;4.05;84.52
6389;BME280;3227;42.654;23.360;2023-01-25T04:41:15;95472.75;;;4.12;84.79
6389;BME280;3227;42.654;23.360;2023-01-25T04:43:42;95477.53;;;4.04;82.33
6389;BME280;3227;42.654;23.360;2023-01-25T04:46:09;95469.63;;;3.97;82.90
6389;BME280;3227;42.654;23.360;2023-01-25T04:48:37;95478.31;;;4.02;82.78
6389;BME280;3227;42.654;23.360;2023-01-25T04:51:04;95467.00;;;3.94;83.05
6389;BME280;3227;42.654;23.360;2023-01-25T04:53:33;95473.22;;;4.02;82.88
6389;BME280;3227;42.654;23.360;2023-01-25T04:56:00;95473.47;;;4.08;82.89
6389;BME280;3227;42.654;23.360;2023-01-25T04:58:28;95477.38;;;4.00;81.75
6389;BME280;3227;42.654;23.360;2023-01-25T05:00:59;95478.25;;;4.00;82.71
6389;BME280;3227;42.654;23.360;2023-01-25T05:03:26;95476.66;;;4.04;82.02
6389;BME280;3227;42.654;23.360;2023-01-25T05:05:52;95479.03;;;3.99;81.80
6389;BME280;3227;42.654;23.360;2023-01-25T05:08:19;95475.78;;;4.02;81.89
6389;BME280;3227;42.654;23.360;2023-01-25T05:10:46;95467.47;;;4.06;81.37
6389;BME280;3227;42.654;23.360;2023-01-25T05:13:13;95433.75;;;3.88;80.98
6389;BME280;3227;42.654;23.360;2023-01-25T05:15:41;95471.00;;;3.89;80.47
6389;BME280;3227;42.654;23.360;2023-01-25T05:18:08;95465.44;;;3.76;81.27
6389;BME280;3227;42.654;23.360;2023-01-25T05:20:35;95465.31;;;3.73;81.64
6389;BME280;3227;42.654;23.360;2023-01-25T05:23:02;95463.75;;;3.56;82.25
6389;BME280;3227;42.654;23.360;2023-01-25T05:25:29;95470.69;;;3.60;82.19
6389;BME280;3227;42.654;23.360;2023-01-25T05:28:13;95467.66;;;3.48;82.79
6389;BME280;3227;42.654;23.360;2023-01-25T05:30:41;95468.09;;;3.59;83.29
6389;BME280;3227;42.654;23.360;2023-01-25T05:33:08;95473.81;;;3.55;82.91
6389;BME280;3227;42.654;23.360;2023-01-25T05:35:35;95473.22;;;3.60;83.60
6389;BME280;3227;42.654;23.360;2023-01-25T05:38:02;95469.63;;;3.55;82.89
6389;BME280;3227;42.654;23.360;2023-01-25T05:40:28;95380.91;;;3.12;83.41
6389;BME280;3227;42.654;23.360;2023-01-25T05:42:56;95455.97;;;3.72;82.68
6389;BME280;3227;42.654;23.360;2023-01-25T05:45:24;95472.56;;;3.85;82.56
6389;BME280;3227;42.654;23.360;2023-01-25T05:47:53;95469.53;;;3.94;81.08
6389;BME280;3227;42.654;23.360;2023-01-25T05:50:20;95477.69;;;3.87;81.72
6389;BME280;3227;42.654;23.360;2023-01-25T05:52:47;95479.06;;;3.78;80.60
6389;BME280;3227;42.654;23.360;2023-01-25T05:55:14;95469.97;;;3.83;81.35
6389;BME280;3227;42.654;23.360;2023-01-25T05:57:41;95473.59;;;3.90;81.70
6389;BME280;3227;42.654;23.360;2023-01-25T06:00:09;95480.47;;;3.93;81.96
6389;BME280;3227;42.654;23.360;2023-01-25T06:02:36;95478.59;;;3.89;80.51
6389;BME280;3227;42.654;23.360;2023-01-25T06:05:06;95479.91;;;3.79;80.64
6389;BME280;3227;42.654;23.360;2023-01-25T06:07:33;95476.72;;;3.62;81.32
6389;BME280;3227;42.654;23.360;2023-01-25T06:10:00;95474.75;;;3.57;82.21
6389;BME280;3227;42.654;23.360;2023-01-25T06:12:27;95475.84;;;3.62;81.71
6389;BME280;3227;42.654;23.360;2023-01-25T06:14:54;95486.38;;;3.72;82.34
6389;BME280;3227;42.654;23.360;2023-01-25T06:17:21;95446.13;;;3.38;81.80
6389;BME280;3227;42.654;23.360;2023-01-25T06:19:48;95491.13;;;3.44;83.13
6389;BME280;3227;42.654;23.360;2023-01-25T06:22:16;95490.75;;;3.56;82.71
6389;BME280;3227;42.654;23.360;2023-01-25T06:24:43;95483.63;;;3.66;82.64
6389;BME280;3227;42.654;23.360;2023-01-25T06:27:09;95496.97;;;3.62;82.65
6389;BME280;3227;42.654;23.360;2023-01-25T06:29:37;95489.69;;;3.70;82.59
6389;BME280;3227;42.654;23.360;2023-01-25T06:32:03;95482.38;;;3.57;82.28
6389;BME280;3227;42.654;23.360;2023-01-25T06:34:30;95488.03;;;3.70;81.77
6389;BME280;3227;42.654;23.360;2023-01-25T06:36:57;95484.41;;;3.65;80.23
6389;BME280;3227;42.654;23.360;2023-01-25T06:39:25;95482.19;;;3.52;81.45
6389;BME280;3227;42.654;23.360;2023-01-25T06:41:54;95485.09;;;3.61;82.53
6389;BME280;3227;42.654;23.360;2023-01-25T06:44:21;95484.31;;;3.62;81.87
6389;BME280;3227;42.654;23.360;2023-01-25T06:46:47;95485.22;;;3.64;82.73
6389;BME280;3227;42.654;23.360;2023-01-25T06:49:14;95489.78;;;3.52;81.65
6389;BME280;3227;42.654;23.360;2023-01-25T06:51:41;95481.47;;;3.35;82.36
6389;BME280;3227;42.654;23.360;2023-01-25T06:54:08;95474.06;;;3.40;83.14
6389;BME280;3227;42.654;23.360;2023-01-25T06:56:36;95488.06;;;3.51;83.24
6389;BME280;3227;42.654;23.360;2023-01-25T06:59:03;95486.00;;;3.63;83.84
6389;BME280;3227;42.654;23.360;2023-01-25T07:01:29;95485.22;;;3.64;82.91
6389;BME280;3227;42.654;23.360;2023-01-25T07:03:58;95480.91;;;3.62;82.69
6389;BME280;3227;42.654;23.360;2023-01-25T07:06:30;95489.47;;;3.65;82.72
6389;BME280;3227;42.654;23.360;2023-01-25T07:09:01;95464.56;;;3.55;82.59
6389;BME280;3227;42.654;23.360;2023-01-25T07:11:28;95484.78;;;3.74;83.51
6389;BME280;3227;42.654;23.360;2023-01-25T07:13:56;95482.59;;;3.63;82.37
6389;BME280;3227;42.654;23.360;2023-01-25T07:16:22;95486.69;;;3.59;82.96
6389;BME280;3227;42.654;23.360;2023-01-25T07:18:49;95485.75;;;3.57;83.37
6389;BME280;3227;42.654;23.360;2023-01-25T07:21:18;95443.34;;;3.32;83.59
6389;BME280;3227;42.654;23.360;2023-01-25T07:23:46;95480.47;;;3.51;83.18
6389;BME280;3227;42.654;23.360;2023-01-25T07:26:14;95489.31;;;3.61;83.10
6389;BME280;3227;42.654;23.360;2023-01-25T07:28:42;95495.28;;;3.42;83.97
6389;BME280;3227;42.654;23.360;2023-01-25T07:31:10;95499.28;;;3.37;84.12
6389;BME280;3227;42.654;23.360;2023-01-25T07:33:37;95497.47;;;3.54;83.92
6389;BME280;3227;42.654;23.360;2023-01-25T07:36:06;95487.81;;;3.66;84.02
6389;BME280;3227;42.654;23.360;2023-01-25T07:38:38;95491.22;;;3.66;83.26
6389;BME280;3227;42.654;23.360;2023-01-25T07:41:05;95499.50;;;3.62;83.34
6389;BME280;3227;42.654;23.360;2023-01-25T07:43:32;95504.50;;;3.61;83.47
6389;BME280;3227;42.654;23.360;2023-01-25T07:45:59;95497.94;;;3.66;84.09
6389;BME280;3227;42.654;23.360;2023-01-25T07:48:28;95503.47;;;3.76;83.64
6389;BME280;3227;42.654;23.360;2023-01-25T07:50:57;95502.22;;;3.67;83.97
6389;BME280;3227;42.654;23.360;2023-01-25T07:53:37;95506.03;;;3.36;84.51
6389;BME280;3227;42.654;23.360;2023-01-25T07:56:05;95490.81;;;3.36;85.75
6389;BME280;3227;42.654;23.360;2023-01-25T07:58:37;95499.72;;;3.48;85.71
6389;BME280;3227;42.654;23.360;2023-01-25T08:01:08;95500.09;;;3.36;85.41
6389;BME280;3227;42.654;23.360;2023-01-25T08:03:36;95502.34;;;3.30;86.93
6389;BME280;3227;42.654;23.360;2023-01-25T08:06:03;95487.53;;;3.39;86.03
6389;BME280;3227;42.654;23.360;2023-01-25T08:08:31;95492.00;;;3.44;85.78
6389;BME280;3227;42.654;23.360;2023-01-25T08:10:59;95490.22;;;3.63;85.52
6389;BME280;3227;42.654;23.360;2023-01-25T08:13:26;95473.78;;;3.53;85.49
6389;BME280;3227;42.654;23.360;2023-01-25T08:15:53;95502.72;;;3.58;85.59
6389;BME280;3227;42.654;23.360;2023-01-25T08:18:20;95473.50;;;3.47;86.14
6389;BME280;3227;42.654;23.360;2023-01-25T08:20:49;95470.19;;;3.48;85.45
6389;BME280;3227;42.654;23.360;2023-01-25T08:23:15;95497.72;;;3.60;85.72
6389;BME280;3227;42.654;23.360;2023-01-25T08:25:44;95488.31;;;3.57;85.62
6389;BME280;3227;42.654;23.360;2023-01-25T08:28:11;95495.59;;;3.30;86.68
6389;BME280;3227;42.654;23.360;2023-01-25T08:30:38;95487.59;;;3.40;87.83
6389;BME280;3227;42.654;23.360;2023-01-25T08:33:05;95473.41;;;3.44;87.30
6389;BME280;3227;42.654;23.360;2023-01-25T08:35:32;95486.59;;;3.77;86.29
6389;BME280;3227;42.654;23.360;2023-01-25T08:38:01;95492.03;;;3.65;86.67
6389;BME280;3227;42.654;23.360;2023-01-25T08:40:28;95491.28;;;3.68;86.60
6389;BME280;3227;42.654;23.360;2023-01-25T08:42:55;95474.59;;;3.52;87.42
6389;BME280;3227;42.654;23.360;2023-01-25T08:45:22;95483.06;;;3.53;87.78
6389;BME280;3227;42.654;23.360;2023-01-25T08:47:49;95477.88;;;3.30;88.57
6389;BME280;3227;42.654;23.360;2023-01-25T08:50:16;95476.97;;;2.90;90.84
6389;BME280;3227;42.654;23.360;2023-01-25T08:52:42;95477.53;;;2.65;92.78
6389;BME280;3227;42.654;23.360;2023-01-25T08:55:10;95479.00;;;2.60;93.75
6389;BME280;3227;42.654;23.360;2023-01-25T08:57:37;95481.50;;;2.41;95.39
6389;BME280;3227;42.654;23.360;2023-01-25T09:00:05;95465.00;;;2.49;95.14
6389;BME280;3227;42.654;23.360;2023-01-25T09:02:32;95486.38;;;2.92;93.63
6389;BME280;3227;42.654;23.360;2023-01-25T09:04:59;95472.91;;;3.13;92.26
6389;BME280;3227;42.654;23.360;2023-01-25T09:07:26;95483.31;;;3.19;91.23
6389;BME280;3227;42.654;23.360;2023-01-25T09:09:56;95460.41;;;2.96;92.79
6389;BME280;3227;42.654;23.360;2023-01-25T09:12:25;95485.53;;;3.32;91.54
6389;BME280;3227;42.654;23.360;2023-01-25T09:14:51;95479.44;;;3.27;91.49
6389;BME280;3227;42.654;23.360;2023-01-25T09:17:18;95405.75;;;3.01;90.99
6389;BME280;3227;42.654;23.360;2023-01-25T09:19:46;95466.44;;;3.59;90.44
6389;BME280;3227;42.654;23.360;2023-01-25T09:22:13;95467.78;;;3.51;90.71
6389;BME280;3227;42.654;23.360;2023-01-25T09:24:39;95454.56;;;3.58;90.79
6389;BME280;3227;42.654;23.360;2023-01-25T09:27:06;95459.66;;;3.39;90.93
6389;BME280;3227;42.654;23.360;2023-01-25T09:29:35;95462.56;;;3.48;91.57
6389;BME280;3227;42.654;23.360;2023-01-25T09:32:02;95459.63;;;3.58;91.97
6389;BME280;3227;42.654;23.360;2023-01-25T09:34:28;95457.03;;;3.57;91.35
6389;BME280;3227;42.654;23.360;2023-01-25T09:36:55;95451.16;;;3.58;91.39
6389;BME280;3227;42.654;23.360;2023-01-25T09:39:22;95447.44;;;3.29;92.35
6389;BME280;3227;42.654;23.360;2023-01-25T09:42:15;95440.56;;;3.47;92.68
6389;BME280;3227;42.654;23.360;2023-01-25T09:45:03;95431.19;;;3.65;91.05
6389;BME280;3227;42.654;23.360;2023-01-25T09:47:38;95433.06;;;3.69;91.20
6389;BME280;3227;42.654;23.360;2023-01-25T09:50:33;95413.53;;;3.67;90.05
6389;BME280;3227;42.654;23.360;2023-01-25T09:53:18;95417.59;;;3.63;90.13
6389;BME280;3227;42.654;23.360;2023-01-25T09:55:50;95360.16;;;3.21;89.67
6389;BME280;3227;42.654;23.360;2023-01-25T09:58:20;95420.06;;;3.82;89.82
6389;BME280;3227;42.654;23.360;2023-01-25T10:00:54;95423.53;;;3.85;88.79
6389;BME280;3227;42.654;23.360;2023-01-25T10:03:29;95408.81;;;3.76;88.86
6389;BME280;3227;42.654;23.360;2023-01-25T10:06:01;95408.81;;;3.76;89.12
6389;BME280;3227;42.654;23.360;2023-01-25T10:08:31;95404.03;;;3.83;88.88
6389;BME280;3227;42.654;23.360;2023-01-25T10:11:03;95401.69;;;3.88;88.12
6389;BME280;3227;42.654;23.360;2023-01-25T10:13:33;95396.16;;;3.98;87.41
6389;BME280;3227;42.654;23.360;2023-01-25T10:16:03;95396.63;;;3.47;87.17
6389;BME280;3227;42.654;23.360;2023-01-25T10:18:35;95375.81;;;3.33;88.82
6389;BME280;3227;42.654;23.360;2023-01-25T10:21:08;95381.75;;;3.54;88.20
6389;BME280;3227;42.654;23.360;2023-01-25T10:23:52;95375.06;;;3.77;87.65
6389;BME280;3227;42.654;23.360;2023-01-25T10:26:26;95363.84;;;3.70;87.35
6389;BME280;3227;42.654;23.360;2023-01-25T10:28:58;95376.53;;;3.72;87.17
6389;BME280;3227;42.654;23.360;2023-01-25T10:31:33;95366.69;;;3.79;88.23
6389;BME280;3227;42.654;23.360;2023-01-25T10:34:14;95360.78;;;4.01;86.18
6389;BME280;3227;42.654;23.360;2023-01-25T10:36:45;95360.72;;;3.77;84.95
6389;BME280;3227;42.654;23.360;2023-01-25T10:39:14;95358.13;;;3.55;85.87
6389;BME280;3227;42.654;23.360;2023-01-25T10:41:43;95351.22;;;3.51;86.20
6389;BME280;3227;42.654;23.360;2023-01-25T10:44:11;95360.13;;;3.62;85.59
6389;BME280;3227;42.654;23.360;2023-01-25T10:46:55;95350.47;;;3.97;84.43
6389;BME280;3227;42.654;23.360;2023-01-25T10:49:24;95345.66;;;4.04;83.59
6389;BME280;3227;42.654;23.360;2023-01-25T10:51:53;95284.91;;;3.83;81.48
6389;BME280;3227;42.654;23.360;2023-01-25T10:54:21;95343.31;;;4.09;80.67
6389;BME280;3227;42.654;23.360;2023-01-25T10:56:48;95342.34;;;4.05;82.31
6389;BME280;3227;42.654;23.360;2023-01-25T10:59:18;95336.63;;;4.33;82.38
6389;BME280;3227;42.654;23.360;2023-01-25T11:01:46;95330.41;;;4.49;81.21
6389;BME280;3227;42.654;23.360;2023-01-25T11:04:38;95330.06;;;4.16;79.89
6389;BME280;3227;42.654;23.360;2023-01-25T11:07:24;95323.78;;;3.62;82.11
6389;BME280;3227;42.654;23.360;2023-01-25T11:09:51;95318.34;;;3.53;84.31
6389;BME280;3227;42.654;23.360;2023-01-25T11:12:19;95319.81;;;3.68;83.44
6389;BME280;3227;42.654;23.360;2023-01-25T11:14:47;95328.66;;;3.79;83.14
6389;BME280;3227;42.654;23.360;2023-01-25T11:17:26;95315.78;;;4.18;82.97
6389;BME280;3227;42.654;23.360;2023-01-25T11:20:14;95318.72;;;4.54;82.31
6389;BME280;3227;42.654;23.360;2023-01-25T11:22:49;95309.38;;;4.51;78.86
6389;BME280;3227;42.654;23.360;2023-01-25T11:25:28;95313.84;;;4.58;79.52
6389;BME280;3227;42.654;23.360;2023-01-25T11:28:15;95265.09;;;4.43;78.48
6389;BME280;3227;42.654;23.360;2023-01-25T11:30:43;95309.00;;;4.90;79.54
6389;BME280;3227;42.654;23.360;2023-01-25T11:33:10;95247.44;;;4.72;78.00
6389;BME280;3227;42.654;23.360;2023-01-25T11:38:25;95306.66;;;4.47;77.45
6389;BME280;3227;42.654;23.360;2023-01-25T11:40:57;95297.16;;;4.41;78.38
6389;BME280;3227;42.654;23.360;2023-01-25T11:43:46;95287.19;;;4.00;80.30
6389;BME280;3227;42.654;23.360;2023-01-25T11:46:27;95281.06;;;4.17;79.95
6389;BME280;3227;42.654;23.360;2023-01-25T11:49:08;95272.34;;;3.87;80.94
6389;BME280;3227;42.654;23.360;2023-01-25T11:51:42;95267.41;;;3.67;82.39
6389;BME280;3227;42.654;23.360;2023-01-25T11:57:27;95258.84;;;3.88;82.37
6389;BME280;3227;42.654;23.360;2023-01-25T12:00:03;95203.13;;;3.65;82.58
6389;BME280;3227;42.654;23.360;2023-01-25T12:03:14;95250.94;;;4.26;81.12
6389;BME280;3227;42.654;23.360;2023-01-25T12:05:52;95260.75;;;4.41;79.68
6389;BME280;3227;42.654;23.360;2023-01-25T12:08:33;95260.38;;;4.30;79.40
6389;BME280;3227;42.654;23.360;2023-01-25T12:11:07;95200.88;;;3.97;80.00
6389;BME280;3227;42.654;23.360;2023-01-25T12:13:47;95232.38;;;4.27;79.68
6389;BME280;3227;42.654;23.360;2023-01-25T12:16:32;95249.16;;;4.47;78.56
6389;BME280;3227;42.654;23.360;2023-01-25T12:19:30;95256.22;;;4.32;78.79
6389;BME280;3227;42.654;23.360;2023-01-25T12:25:01;95242.97;;;4.15;80.55
6389;BME280;3227;42.654;23.360;2023-01-25T12:27:40;95248.91;;;4.16;80.72
6389;BME280;3227;42.654;23.360;2023-01-25T12:30:16;95240.81;;;4.26;79.75
6389;BME280;3227;42.654;23.360;2023-01-25T12:32:50;95230.41;;;4.20;79.76
6389;BME280;3227;42.654;23.360;2023-01-25T12:35:24;95239.06;;;4.25;78.70
6389;BME280;3227;42.654;23.360;2023-01-25T12:37:57;95233.69;;;4.16;79.69
6389;BME280;3227;42.654;23.360;2023-01-25T12:40:40;95235.81;;;4.05;79.73
6389;BME280;3227;42.654;23.360;2023-01-25T12:43:14;95163.84;;;3.54;80.31
6389;BME280;3227;42.654;23.360;2023-01-25T12:45:44;95220.59;;;3.81;81.03
6389;BME280;3227;42.654;23.360;2023-01-25T12:48:16;95223.53;;;3.92;80.91
6389;BME280;3227;42.654;23.360;2023-01-25T12:50:51;95215.22;;;3.96;79.97
6389;BME280;3227;42.654;23.360;2023-01-25T12:53:23;95192.28;;;3.69;80.29
6389;BME280;3227;42.654;23.360;2023-01-25T12:55:52;95219.00;;;3.83;80.85
6389;BME280;3227;42.654;23.360;2023-01-25T12:58:25;95217.75;;;3.96;79.79
6389;BME280;3227;42.654;23.360;2023-01-25T13:00:57;95225.00;;;3.87;81.18
6389;BME280;3227;42.654;23.360;2023-01-25T13:03:30;95214.78;;;3.84;81.47
6389;BME280;3227;42.654;23.360;2023-01-25T13:06:08;95213.53;;;3.73;81.20
6389;BME280;3227;42.654;23.360;2023-01-25T13:08:52;95135.06;;;3.28;81.42
6389;BME280;3227;42.654;23.360;2023-01-25T13:11:24;95179.22;;;3.59;81.42
6389;BME280;3227;42.654;23.360;2023-01-25T13:14:28;95197.63;;;3.77;81.94
6389;BME280;3227;42.654;23.360;2023-01-25T13:17:10;95150.38;;;3.79;81.62
6389;BME280;3227;42.654;23.360;2023-01-25T13:19:41;95192.09;;;4.11;81.18
6389;BME280;3227;42.654;23.360;2023-01-25T13:22:08;95203.41;;;3.97;80.81
6389;BME280;3227;42.654;23.360;2023-01-25T13:25:05;95198.72;;;3.83;80.86
6389;BME280;3227;42.654;23.360;2023-01-25T13:27:33;95197.31;;;3.92;79.77
6389;BME280;3227;42.654;23.360;2023-01-25T13:30:01;95191.59;;;3.73;80.95
6389;BME280;3227;42.654;23.360;2023-01-25T13:33:02;95199.41;;;3.79;79.96
6389;BME280;3227;42.654;23.360;2023-01-25T13:35:42;95195.97;;;4.01;81.52
6389;BME280;3227;42.654;23.360;2023-01-25T13:38:36;95185.16;;;4.07;80.03
6389;BME280;3227;42.654;23.360;2023-01-25T13:41:04;95210.19;;;3.98;80.33
6389;BME280;3227;42.654;23.360;2023-01-25T13:43:37;95189.53;;;3.87;80.11
6389;BME280;3227;42.654;23.360;2023-01-25T13:46:05;95200.38;;;4.07;80.29
6389;BME280;3227;42.654;23.360;2023-01-25T13:48:35;95204.00;;;4.13;80.74